Time;durP1;ratioP1;P1;durP2;ratioP2;P2;SDS_P1;SDS_P2;PMS_P1;PMS_P2;Temp;Humidity;BMP_temperature;BMP_pressure;BME280_temperature;BME280_humidity;BME280_pressure;Samples;Min_cycle;Max_cycle;Signal;HPM_P1;HPM_P2
2022/08/14 00:00:48;;;;;;;9.70;5.60;;;19.30;99.90;;;;;;5050058;28;20680;-52
2022/08/14 00:03:21;;;;;;;9.10;5.05;;;19.40;99.90;;;;;;5051173;28;20494;-51
2022/08/14 00:05:47;;;;;;;9.67;5.40;;;19.50;99.90;;;;;;5050124;28;20425;-51
2022/08/14 00:08:13;;;;;;;9.48;5.07;;;19.60;99.90;;;;;;5050962;28;20417;-50
2022/08/14 00:10:38;;;;;;;11.80;5.30;;;19.60;99.90;;;;;;5051369;28;20845;-48
2022/08/14 00:13:05;;;;;;;9.90;5.70;;;19.60;99.90;;;;;;5050717;28;20402;-48
2022/08/14 00:15:33;;;;;;;11.07;4.97;;;19.60;99.90;;;;;;5050232;28;20427;-49
2022/08/14 00:17:59;;;;;;;10.17;5.70;;;19.70;99.90;;;;;;5050648;28;20447;-49
2022/08/14 00:20:28;;;;;;;10.05;4.93;;;19.60;99.90;;;;;;5050092;28;20393;-53
2022/08/14 00:22:54;;;;;;;11.13;5.70;;;19.60;99.90;;;;;;5050244;28;20401;-49
2022/08/14 00:25:20;;;;;;;10.70;5.80;;;19.60;99.90;;;;;;5050852;28;20406;-49
2022/08/14 00:27:46;;;;;;;10.83;5.57;;;19.60;99.90;;;;;;5049159;28;21139;-48
2022/08/14 00:30:13;;;;;;;9.15;5.10;;;19.50;99.90;;;;;;5050849;28;20402;-49
2022/08/14 00:32:40;;;;;;;9.00;5.38;;;19.50;99.90;;;;;;5032637;28;20436;-48
2022/08/14 00:35:07;;;;;;;8.98;5.50;;;19.50;99.90;;;;;;5050494;28;20385;-49
2022/08/14 00:37:33;;;;;;;9.48;5.13;;;19.40;99.90;;;;;;5049568;28;20740;-49
2022/08/14 00:40:00;;;;;;;11.20;5.00;;;19.30;99.90;;;;;;5050324;28;20808;-48
2022/08/14 00:42:27;;;;;;;10.40;5.22;;;19.10;99.90;;;;;;5050143;28;20459;-52
2022/08/14 00:44:54;;;;;;;10.95;5.35;;;19.10;99.90;;;;;;5050396;28;20386;-48
2022/08/14 00:47:23;;;;;;;8.95;4.97;;;19.00;99.90;;;;;;5050813;28;20386;-49
2022/08/14 00:49:51;;;;;;;9.13;5.10;;;19.10;99.90;;;;;;5049882;28;20858;-51
2022/08/14 00:52:18;;;;;;;11.40;5.00;;;18.90;99.90;;;;;;5044563;28;20543;-49
2022/08/14 00:54:45;;;;;;;11.50;5.20;;;18.90;99.90;;;;;;5050052;28;20476;-48
2022/08/14 00:57:11;;;;;;;9.40;5.43;;;18.90;99.90;;;;;;5049640;28;20440;-48
2022/08/14 00:59:36;;;;;;;10.53;5.10;;;18.80;99.90;;;;;;5049813;28;20764;-49
2022/08/14 01:02:04;;;;;;;11.15;5.63;;;18.80;99.90;;;;;;5050269;28;20389;-48
2022/08/14 01:04:34;;;;;;;10.85;5.80;;;18.70;99.90;;;;;;5049634;28;20385;-50
2022/08/14 01:07:01;;;;;;;10.10;5.30;;;18.60;99.90;;;;;;5030366;28;20375;-49
2022/08/14 01:09:29;;;;;;;8.80;5.55;;;18.60;99.90;;;;;;5030175;28;20415;-53
2022/08/14 01:11:56;;;;;;;10.05;5.70;;;18.40;99.90;;;;;;5050312;28;20917;-48
2022/08/14 01:14:22;;;;;;;11.57;5.50;;;18.30;99.90;;;;;;5050315;28;20389;-48
2022/08/14 01:16:48;;;;;;;10.05;5.85;;;18.20;99.90;;;;;;5049110;28;20393;-48
2022/08/14 01:21:58;;;;;;;10.07;5.75;;;18.20;99.90;;;;;;5050627;28;20912;-49
2022/08/14 01:24:25;;;;;;;8.70;5.18;;;18.20;99.90;;;;;;5049676;28;20417;-49
2022/08/14 01:26:52;;;;;;;9.18;5.65;;;18.20;99.90;;;;;;5049270;28;20480;-49
2022/08/14 01:29:18;;;;;;;10.35;5.43;;;18.10;99.90;;;;;;5049667;28;20406;-49
2022/08/14 01:31:54;;;;;;;11.35;5.60;;;16.60;99.90;;;;;;5048772;28;20767;-50
2022/08/14 01:34:22;;;;;;;9.38;5.53;;;17.80;99.90;;;;;;5049978;28;20386;-49
2022/08/14 01:36:49;;;;;;;10.30;5.38;;;17.70;99.90;;;;;;5049211;28;20633;-49
2022/08/14 01:39:16;;;;;;;10.30;5.93;;;17.70;99.90;;;;;;5049231;28;20932;-49
2022/08/14 01:41:51;;;;;;;10.10;5.47;;;17.70;99.90;;;;;;5048709;28;20413;-49
2022/08/14 01:44:17;;;;;;;9.90;6.10;;;17.70;99.90;;;;;;5049444;28;20522;-49
2022/08/14 01:46:44;;;;;;;11.38;6.00;;;17.60;99.90;;;;;;5049258;28;20719;-49
2022/08/14 01:49:14;;;;;;;10.27;5.10;;;17.50;99.90;;;;;;5049244;28;20397;-49
2022/08/14 01:51:40;;;;;;;10.95;5.80;;;17.40;99.90;;;;;;5048686;28;20389;-49
2022/08/14 01:54:12;;;;;;;8.93;5.13;;;17.30;1.00;;;;;;5049794;28;20385;-49
2022/08/14 01:56:39;;;;;;;9.52;5.50;;;17.10;1.00;;;;;;5049094;28;20404;-49
2022/08/14 01:59:18;;;;;;;10.00;5.50;;;17.00;1.00;;;;;;5049378;28;20405;-49
2022/08/14 02:01:45;;;;;;;9.90;5.85;;;17.00;1.00;;;;;;5048343;28;20393;-49
2022/08/14 02:04:10;;;;;;;10.10;5.83;;;17.00;1.00;;;;;;5049922;28;20408;-49
2022/08/14 02:06:37;;;;;;;9.80;5.80;;;17.20;1.00;;;;;;5049204;28;20471;-49
2022/08/14 02:09:07;;;;;;;10.13;5.72;;;17.20;1.00;;;;;;5049486;28;20762;-49
2022/08/14 02:11:34;;;;;;;11.60;5.88;;;17.30;1.00;;;;;;5031348;28;20457;-52
2022/08/14 02:14:06;;;;;;;10.65;5.18;;;17.30;1.00;;;;;;5049739;28;20369;-49
2022/08/14 02:16:38;;;;;;;9.60;6.03;;;17.20;1.00;;;;;;5048669;28;20735;-53
2022/08/14 02:19:09;;;;;;;11.52;5.22;;;17.20;1.00;;;;;;5031771;28;20388;-49
2022/08/14 02:21:36;;;;;;;9.70;5.70;;;17.00;1.00;;;;;;5048724;28;20382;-49
2022/08/14 02:24:04;;;;;;;11.03;5.30;;;16.90;1.00;;;;;;5049284;28;20401;-49
2022/08/14 02:26:32;;;;;;;9.98;5.60;;;16.70;42.50;;;;;;5049036;28;20401;-53
2022/08/14 02:29:00;;;;;;;10.15;6.10;;;16.80;25.80;;;;;;5029166;28;20888;-50
2022/08/14 02:31:31;;;;;;;9.20;5.80;;;16.80;1.00;;;;;;5029671;28;20368;-51
2022/08/14 02:33:58;;;;;;;12.38;6.10;;;16.80;33.50;;;;;;5048718;28;20389;-50
2022/08/14 02:36:25;;;;;;;10.73;6.07;;;16.80;22.10;;;;;;5048747;28;20484;-49
2022/08/14 02:38:51;;;;;;;10.10;5.47;;;16.90;1.00;;;;;;5048808;28;20762;-50
2022/08/14 02:41:17;;;;;;;10.50;6.10;;;16.80;1.00;;;;;;5049211;28;20393;-49
2022/08/14 02:43:43;;;;;;;10.25;6.10;;;16.70;24.40;;;;;;5047824;28;20463;-49
2022/08/14 02:46:10;;;;;;;10.17;6.07;;;16.80;3.30;;;;;;5052680;28;20389;-50
2022/08/14 02:48:41;;;;;;;9.52;6.00;;;16.80;1.00;;;;;;5051603;28;20391;-50
2022/08/14 02:51:15;;;;;;;11.93;6.95;;;16.80;1.00;;;;;;5052522;28;20899;-50
2022/08/14 02:53:44;;;;;;;12.20;6.40;;;16.70;71.70;;;;;;5032205;28;20387;-50
2022/08/14 02:56:14;;;;;;;12.27;6.18;;;16.60;99.90;;;;;;5032381;28;20744;-49
2022/08/14 02:58:43;;;;;;;10.50;6.20;;;16.50;99.90;;;;;;5050553;28;20400;-51
2022/08/14 03:01:09;;;;;;;10.77;5.93;;;16.50;99.90;;;;;;5052298;28;20377;-49
2022/08/14 03:03:36;;;;;;;12.05;6.25;;;16.50;99.90;;;;;;5051237;28;20406;-49
2022/08/14 03:06:06;;;;;;;10.50;5.77;;;16.40;99.90;;;;;;5052669;28;20392;-48
2022/08/14 03:08:33;;;;;;;9.75;5.70;;;16.40;99.90;;;;;;5051646;28;20429;-49
2022/08/14 03:11:05;;;;;;;9.70;5.68;;;16.30;1.00;;;;;;5052159;28;20886;-49
2022/08/14 03:13:39;;;;;;;10.20;5.87;;;16.20;1.00;;;;;;5051624;28;20878;-52
2022/08/14 03:16:06;;;;;;;9.50;5.60;;;16.10;1.00;;;;;;5052316;28;20862;-48
2022/08/14 03:18:32;;;;;;;9.88;6.20;;;16.00;1.00;;;;;;5050825;28;20393;-53
2022/08/14 03:21:06;;;;;;;10.83;6.03;;;16.10;1.00;;;;;;5052202;28;20380;-48
2022/08/14 03:23:33;;;;;;;11.20;6.60;;;16.00;11.30;;;;;;5051406;28;20512;-49
2022/08/14 03:25:59;;;;;;;12.00;6.05;;;15.90;99.90;;;;;;5051833;28;20397;-49
2022/08/14 03:28:28;;;;;;;11.50;6.07;;;15.80;99.90;;;;;;5051817;28;20413;-49
2022/08/14 03:30:54;;;;;;;9.25;5.53;;;15.90;99.90;;;;;;5051763;28;20378;-49
2022/08/14 03:33:20;;;;;;;10.80;6.07;;;16.00;44.50;;;;;;5051918;28;21255;-49
2022/08/14 03:35:46;;;;;;;10.57;6.00;;;16.00;40.60;;;;;;5051520;28;20374;-49
2022/08/14 03:38:12;;;;;;;11.98;6.40;;;16.10;1.00;;;;;;5051765;28;20401;-50
2022/08/14 03:40:39;;;;;;;10.98;6.47;;;16.10;1.00;;;;;;5050754;28;20489;-50
2022/08/14 03:43:07;;;;;;;10.13;6.20;;;16.10;1.00;;;;;;5051357;28;20409;-50
2022/08/14 03:45:34;;;;;;;13.02;6.38;;;16.10;1.00;;;;;;5051292;28;20386;-49
2022/08/14 03:48:18;;;;;;;10.18;5.95;;;16.20;1.00;;;;;;5052073;28;20412;-49
2022/08/14 03:50:50;;;;;;;11.20;6.70;;;16.20;1.00;;;;;;5050901;28;20424;-49
2022/08/14 03:53:17;;;;;;;10.45;5.97;;;16.20;1.00;;;;;;5051829;28;20389;-49
2022/08/14 03:55:43;;;;;;;11.45;5.95;;;16.20;1.00;;;;;;5050723;28;20393;-49
2022/08/14 03:58:09;;;;;;;10.00;5.68;;;16.10;30.40;;;;;;5051323;28;20728;-49
2022/08/14 04:00:36;;;;;;;12.55;6.70;;;15.90;99.90;;;;;;5050926;28;20843;-49
2022/08/14 04:03:04;;;;;;;11.60;6.20;;;15.80;1.00;;;;;;5051344;28;20417;-49
2022/08/14 04:05:30;;;;;;;11.13;6.30;;;15.70;1.00;;;;;;5050767;28;20747;-52
2022/08/14 04:07:57;;;;;;;12.57;6.55;;;15.40;1.00;;;;;;5050630;28;20401;-48
2022/08/14 04:10:23;;;;;;;11.27;6.93;;;15.70;1.00;;;;;;5051462;28;20413;-49
2022/08/14 04:12:49;;;;;;;11.63;6.43;;;15.70;1.00;;;;;;5050728;28;20474;-49
2022/08/14 04:15:17;;;;;;;12.00;6.55;;;15.70;1.00;;;;;;5051627;28;20425;-48
2022/08/14 04:17:42;;;;;;;12.68;6.50;;;15.80;1.00;;;;;;5050132;28;20389;-49
2022/08/14 04:20:08;;;;;;;11.00;6.63;;;15.80;1.00;;;;;;5050590;28;20384;-49
2022/08/14 04:22:35;;;;;;;10.90;6.20;;;15.80;1.00;;;;;;5050053;28;20409;-52
2022/08/14 04:25:01;;;;;;;9.80;6.20;;;15.70;1.00;;;;;;5050898;28;20390;-48
2022/08/14 04:27:28;;;;;;;11.27;6.88;;;15.70;1.00;;;;;;5050947;28;20397;-48
2022/08/14 04:29:53;;;;;;;11.25;6.43;;;15.60;99.90;;;;;;5049563;28;20389;-49
2022/08/14 04:32:24;;;;;;;11.60;6.20;;;15.60;99.90;;;;;;5050511;28;20496;-49
2022/08/14 04:34:51;;;;;;;10.27;6.13;;;15.60;99.90;;;;;;5049955;28;20376;-49
2022/08/14 04:45:39;;;;;;;13.88;7.40;;;15.80;5.00;;;;;;5049786;28;20519;-48
2022/08/14 04:48:12;;;;;;;14.52;6.32;;;16.00;1.00;;;;;;5050151;28;20397;-49
2022/08/14 04:50:50;;;;;;;10.27;6.63;;;16.10;1.00;;;;;;5050143;28;20385;-48
2022/08/14 04:53:19;;;;;;;11.93;6.60;;;16.30;99.90;;;;;;5049633;28;21020;-48
2022/08/14 04:55:47;;;;;;;10.82;6.30;;;16.40;99.90;;;;;;5050157;28;20389;-48
2022/08/14 04:58:17;;;;;;;9.85;5.90;;;16.50;99.90;;;;;;5050017;28;20397;-48
2022/08/14 05:00:44;;;;;;;10.07;5.80;;;16.80;1.00;;;;;;5049281;28;20381;-49
2022/08/14 05:03:10;;;;;;;9.88;5.93;;;17.30;99.90;;;;;;5049747;28;20413;-48
2022/08/14 05:05:35;;;;;;;10.60;5.80;;;18.40;99.90;;;;;;5049513;28;20714;-49
2022/08/14 05:08:13;;;;;;;11.02;5.70;;;19.70;1.00;;;;;;5049869;28;20668;-49
2022/08/14 05:10:50;;;;;;;9.33;5.50;;;21.20;99.90;;;;;;5049336;28;20416;-49
2022/08/14 05:13:17;;;;;;;11.07;5.90;;;21.60;99.90;;;;;;5050213;28;20401;-50
2022/08/14 05:15:45;;;;;;;9.63;5.78;;;21.20;99.90;;;;;;5049272;28;20396;-48
2022/08/14 05:18:13;;;;;;;10.82;6.40;;;20.80;99.90;;;;;;5049999;28;20760;-49
2022/08/14 05:20:42;;;;;;;11.73;6.50;;;20.50;99.90;;;;;;5049169;28;20478;-48
2022/08/14 05:23:08;;;;;;;11.97;6.33;;;20.30;99.90;;;;;;5048916;28;20748;-48
2022/08/14 05:25:36;;;;;;;11.00;6.43;;;20.50;99.90;;;;;;5049363;28;20846;-53
2022/08/14 05:28:20;;;;;;;10.73;6.47;;;20.90;99.90;;;;;;5050094;28;20893;-48
2022/08/14 05:30:54;;;;;;;12.68;6.40;;;21.70;99.90;;;;;;5049295;28;20485;-49
2022/08/14 05:33:23;;;;;;;12.57;6.30;;;22.90;99.90;;;;;;5049597;28;20419;-49
2022/08/14 05:35:50;;;;;;;13.05;6.57;;;24.60;99.90;;;;;;5049450;28;20827;-48
2022/08/14 05:38:18;;;;;;;11.88;6.20;;;25.70;99.90;;;;;;5049567;28;20389;-50
2022/08/14 05:40:44;;;;;;;9.80;5.90;;;26.40;99.90;;;;;;5049073;28;20461;-49
2022/08/14 05:43:10;;;;;;;11.18;6.70;;;26.80;99.90;;;;;;5048757;28;20436;-49
2022/08/14 05:45:36;;;;;;;14.18;7.07;;;27.40;99.90;;;;;;5048769;28;20724;-52
2022/08/14 05:48:04;;;;;;;10.25;6.80;;;28.10;99.90;;;;;;5049612;28;20385;-49
2022/08/14 05:50:31;;;;;;;15.00;7.00;;;28.60;99.90;;;;;;5048963;28;20744;-49
2022/08/14 05:52:57;;;;;;;10.35;6.70;;;29.10;99.90;;;;;;5048385;28;20500;-49
2022/08/14 05:55:24;;;;;;;9.95;6.50;;;29.50;99.90;;;;;;5049525;28;20400;-49
2022/08/14 05:57:59;;;;;;;11.80;7.57;;;29.70;99.90;;;;;;5049047;28;20555;-49
2022/08/14 06:00:29;;;;;;;9.68;7.10;;;30.10;99.90;;;;;;5048984;28;20402;-49
2022/08/14 06:02:59;;;;;;;10.23;6.60;;;30.20;99.90;;;;;;5048793;28;20474;-49
2022/08/14 06:05:25;;;;;;;10.05;7.00;;;29.90;99.90;;;;;;5044333;28;20410;-49
2022/08/14 06:07:51;;;;;;;10.90;7.15;;;29.90;99.90;;;;;;5048818;28;20416;-49
2022/08/14 06:10:17;;;;;;;11.10;6.80;;;29.70;99.90;;;;;;5049320;28;20382;-50
2022/08/14 06:12:42;;;;;;;10.65;7.60;;;29.20;99.90;;;;;;5048593;28;20410;-49
2022/08/14 06:15:08;;;;;;;9.43;6.93;;;28.40;99.90;;;;;;5049566;28;20484;-49
2022/08/14 06:17:45;;;;;;;10.32;7.20;;;28.10;99.90;;;;;;5048418;28;20397;-49
2022/08/14 06:20:12;;;;;;;10.00;6.90;;;28.50;99.90;;;;;;5052714;28;20420;-49
2022/08/14 06:22:39;;;;;;;11.00;6.03;;;27.70;99.90;;;;;;5052134;28;20755;-49
2022/08/14 06:25:05;;;;;;;9.30;6.90;;;27.20;99.90;;;;;;5052726;28;20412;-49
2022/08/14 06:27:39;;;;;;;10.90;6.43;;;27.70;99.90;;;;;;5052001;28;20404;-49
2022/08/14 06:30:07;;;;;;;10.90;6.80;;;28.60;99.90;;;;;;5052081;28;21266;-49
2022/08/14 06:32:33;;;;;;;9.07;6.17;;;29.20;99.90;;;;;;5051989;28;20397;-52
2022/08/14 06:34:59;;;;;;;10.20;7.15;;;30.40;99.90;;;;;;5051741;28;20397;-50
2022/08/14 06:37:26;;;;;;;8.90;6.93;;;30.70;99.90;;;;;;5052707;28;20385;-50
2022/08/14 06:39:52;;;;;;;10.88;6.65;;;31.30;99.90;;;;;;5051252;28;20397;-49
2022/08/14 06:42:17;;;;;;;9.93;6.55;;;31.50;99.90;;;;;;5052139;28;20942;-50
2022/08/14 06:44:43;;;;;;;9.77;6.90;;;31.80;99.90;;;;;;5051654;28;20390;-50
2022/08/14 06:47:10;;;;;;;10.82;5.97;;;32.20;99.90;;;;;;5051565;28;20397;-49
2022/08/14 06:49:36;;;;;;;8.25;6.00;;;32.20;99.90;;;;;;5051407;28;20457;-50
2022/08/14 06:52:02;;;;;;;9.60;6.30;;;31.90;99.90;;;;;;5052047;28;20418;-51
2022/08/14 06:54:28;;;;;;;8.90;5.72;;;31.50;99.90;;;;;;5052192;28;20395;-49
2022/08/14 06:56:54;;;;;;;9.70;6.25;;;31.90;99.90;;;;;;5051462;28;20928;-52
2022/08/14 06:59:19;;;;;;;8.20;5.25;;;31.80;99.90;;;;;;5052195;28;20382;-49
2022/08/14 07:07:14;;;;;;;8.10;5.90;;;33.50;99.90;;;;;;5051432;28;20483;-49
2022/08/14 07:09:39;;;;;;;8.70;5.90;;;33.40;99.90;;;;;;5050804;28;20432;-49
2022/08/14 07:12:05;;;;;;;8.60;6.60;;;34.00;99.90;;;;;;5052140;28;20464;-49
2022/08/14 07:14:30;;;;;;;9.23;6.17;;;34.70;99.90;;;;;;5052132;28;20389;-50
2022/08/14 07:16:56;;;;;;;9.13;6.50;;;34.70;99.90;;;;;;5050088;28;20716;-53
2022/08/14 07:19:22;;;;;;;8.63;6.20;;;34.50;99.90;;;;;;5033977;28;20927;-53
2022/08/14 07:21:48;;;;;;;9.55;6.07;;;35.30;99.90;;;;;;5049601;28;20394;-53
2022/08/14 07:24:14;;;;;;;9.80;6.20;;;36.40;99.90;;;;;;5051987;28;20475;-53
2022/08/14 07:26:40;;;;;;;8.20;6.32;;;36.80;99.90;;;;;;5050495;28;20405;-53
2022/08/14 07:29:05;;;;;;;7.88;5.78;;;37.00;99.90;;;;;;5051368;28;20886;-53
2022/08/14 07:31:31;;;;;;;6.70;4.00;;;37.70;99.90;;;;;;5050513;28;20397;-53
2022/08/14 07:33:57;;;;;;;7.30;3.90;;;38.00;99.90;;;;;;5049893;28;20749;-53
2022/08/14 07:36:22;;;;;;;6.85;3.20;;;37.30;99.90;;;;;;5050495;28;20779;-53
2022/08/14 07:38:49;;;;;;;8.47;3.40;;;37.40;99.90;;;;;;5051419;28;20382;-53
2022/08/14 07:41:14;;;;;;;8.10;4.25;;;37.30;99.90;;;;;;5050820;28;20447;-54
2022/08/14 07:43:42;;;;;;;7.30;5.10;;;38.20;99.90;;;;;;5050279;28;20405;-53
2022/08/14 07:46:07;;;;;;;6.97;4.67;;;38.60;99.90;;;;;;5051117;28;20401;-53
2022/08/14 07:48:42;;;;;;;6.90;4.40;;;38.60;99.90;;;;;;5050907;28;20460;-53
2022/08/14 07:51:08;;;;;;;7.30;4.03;;;39.70;99.90;;;;;;5050781;28;20431;-53
2022/08/14 07:53:35;;;;;;;6.55;3.38;;;39.30;99.90;;;;;;5050037;28;20404;-55
2022/08/14 07:56:01;;;;;;;6.72;4.10;;;38.50;99.90;;;;;;5050805;28;20724;-53
2022/08/14 07:58:26;;;;;;;6.90;3.60;;;37.40;99.90;;;;;;5050614;28;20390;-53
2022/08/14 08:00:56;;;;;;;7.00;3.67;;;37.90;99.90;;;;;;5049785;28;20393;-53
2022/08/14 08:03:26;;;;;;;7.00;4.20;;;38.40;99.90;;;;;;5050295;28;20785;-53
2022/08/14 08:05:52;;;;;;;6.82;4.05;;;38.90;99.90;;;;;;5049966;28;20411;-53
2022/08/14 08:08:18;;;;;;;6.65;3.70;;;38.90;99.90;;;;;;5050534;28;20397;-53
2022/08/14 08:10:45;;;;;;;8.30;4.37;;;39.00;99.90;;;;;;5050149;28;20392;-53
2022/08/14 08:13:13;;;;;;;7.30;5.35;;;39.40;99.90;;;;;;5050302;28;20389;-53
2022/08/14 08:15:42;;;;;;;6.93;4.10;;;39.80;99.90;;;;;;5049618;28;20416;-54
2022/08/14 08:18:09;;;;;;;7.75;4.13;;;40.20;99.90;;;;;;5050249;28;20393;-53
2022/08/14 08:20:39;;;;;;;8.75;4.10;;;39.80;99.90;;;;;;5050258;28;20862;-54
2022/08/14 08:23:07;;;;;;;6.90;3.80;;;39.90;99.90;;;;;;5048989;28;20418;-53
2022/08/14 08:25:37;;;;;;;6.72;4.03;;;40.30;99.90;;;;;;5049788;28;20420;-53
2022/08/14 08:28:09;;;;;;;8.00;5.03;;;40.40;99.90;;;;;;5050661;28;20410;-54
2022/08/14 08:30:37;;;;;;;7.53;4.30;;;40.90;99.90;;;;;;5050097;28;20425;-57
2022/08/14 08:33:05;;;;;;;7.78;6.32;;;41.70;99.90;;;;;;5050077;28;20381;-53
2022/08/14 08:35:41;;;;;;;7.80;7.00;;;41.60;99.90;;;;;;5049990;28;20390;-53
2022/08/14 08:38:18;;;;;;;7.68;6.53;;;41.60;99.90;;;;;;5036901;28;20755;-53
2022/08/14 08:40:47;;;;;;;7.73;5.70;;;41.80;99.90;;;;;;5049432;28;20390;-53
2022/08/14 08:43:20;;;;;;;8.85;6.80;;;41.80;99.90;;;;;;5048968;28;20855;-53
2022/08/14 08:45:57;;;;;;;7.00;5.10;;;41.60;99.90;;;;;;5048250;28;20400;-53
2022/08/14 08:48:30;;;;;;;7.30;5.60;;;41.00;99.90;;;;;;5050014;28;20427;-53
2022/08/14 08:50:58;;;;;;;7.50;5.90;;;40.20;99.90;;;;;;5048133;28;20433;-53
2022/08/14 08:53:31;;;;;;;7.70;5.60;;;40.40;99.90;;;;;;5028867;28;20397;-53
2022/08/14 08:55:57;;;;;;;7.65;6.18;;;40.30;99.90;;;;;;5049388;28;20442;-53
2022/08/14 08:58:24;;;;;;;7.90;6.43;;;41.00;99.90;;;;;;5050661;28;20385;-53
2022/08/14 09:01:00;;;;;;;7.25;5.70;;;41.10;99.90;;;;;;5048210;28;20837;-53
2022/08/14 09:03:28;;;;;;;7.10;5.30;;;41.20;99.90;;;;;;5048481;28;20405;-53
2022/08/14 09:06:02;;;;;;;7.10;5.82;;;41.00;99.90;;;;;;5048960;28;20397;-54
2022/08/14 09:08:33;;;;;;;7.43;5.70;;;41.70;99.90;;;;;;5047743;28;20389;-53
2022/08/14 09:11:01;;;;;;;7.43;6.00;;;41.80;99.90;;;;;;5050549;28;20502;-51
2022/08/14 09:13:28;;;;;;;7.90;5.63;;;41.00;99.90;;;;;;5049588;28;20412;-50
2022/08/14 09:15:55;;;;;;;7.40;6.30;;;39.80;99.90;;;;;;5047797;28;20392;-50
2022/08/14 09:18:21;;;;;;;7.70;5.30;;;39.60;99.90;;;;;;5048966;28;20462;-51
2022/08/14 09:20:50;;;;;;;7.50;5.60;;;39.90;99.90;;;;;;5047886;28;20401;-49
2022/08/14 09:23:16;;;;;;;7.20;6.25;;;40.50;99.90;;;;;;5047444;28;20409;-51
2022/08/14 09:25:44;;;;;;;7.50;6.28;;;40.70;99.90;;;;;;5047272;28;20762;-50
2022/08/14 09:28:11;;;;;;;7.32;5.75;;;40.60;99.90;;;;;;5048450;28;20417;-50
2022/08/14 09:30:41;;;;;;;9.57;6.88;;;40.00;99.90;;;;;;5048803;28;20754;-50
2022/08/14 09:33:28;;;;;;;7.88;6.55;;;39.70;99.90;;;;;;5049704;28;20404;-50
2022/08/14 09:36:15;;;;;;;7.80;6.32;;;39.00;99.90;;;;;;5048279;28;20405;-50
2022/08/14 09:39:18;;;;;;;8.20;7.15;;;38.90;99.90;;;;;;5046903;28;20401;-50
2022/08/14 09:42:13;;;;;;;8.00;5.88;;;37.90;99.90;;;;;;5046406;28;20841;-49
2022/08/14 09:45:07;;;;;;;9.32;6.80;;;37.50;99.90;;;;;;5048033;28;20417;-50
2022/08/14 09:47:44;;;;;;;8.02;6.82;;;36.90;99.90;;;;;;5047114;28;20492;-49
2022/08/14 09:50:30;;;;;;;9.30;7.90;;;37.20;99.90;;;;;;5049144;28;20435;-49
2022/08/14 09:53:04;;;;;;;8.80;7.10;;;37.10;99.90;;;;;;5045692;28;20666;-51
2022/08/14 09:55:34;;;;;;;7.35;6.07;;;38.00;99.90;;;;;;5052541;28;20451;-51
2022/08/14 09:58:19;;;;;;;8.73;7.65;;;38.70;99.90;;;;;;5052264;28;20411;-50
2022/08/14 10:00:56;;;;;;;8.27;6.88;;;38.70;99.90;;;;;;5051225;28;20400;-49
2022/08/14 10:03:33;;;;;;;7.55;6.50;;;38.60;99.90;;;;;;5052893;28;20443;-49
2022/08/14 10:06:12;;;;;;;10.20;6.80;;;38.90;99.90;;;;;;5050381;28;20527;-49
2022/08/14 10:08:44;;;;;;;8.48;5.82;;;39.60;99.90;;;;;;5050556;28;20392;-54
2022/08/14 10:11:20;;;;;;;7.45;6.03;;;39.00;99.90;;;;;;5052766;28;20735;-49
2022/08/14 10:13:53;;;;;;;8.60;7.65;;;38.70;99.90;;;;;;5052382;28;20385;-49
2022/08/14 10:16:24;;;;;;;8.33;7.50;;;37.70;99.90;;;;;;5050943;28;20384;-49
2022/08/14 10:19:04;;;;;;;8.30;6.40;;;36.50;99.90;;;;;;5052021;28;20400;-50
2022/08/14 10:21:29;;;;;;;8.00;6.80;;;37.60;99.90;;;;;;5052752;28;20484;-51
2022/08/14 10:23:55;;;;;;;8.47;6.57;;;37.50;99.90;;;;;;5051966;28;20873;-49
2022/08/14 10:26:21;;;;;;;7.82;6.10;;;37.60;99.90;;;;;;5053058;28;20404;-51
2022/08/14 10:28:49;;;;;;;9.40;7.63;;;37.90;99.90;;;;;;5051950;28;20489;-49
2022/08/14 10:31:31;;;;;;;9.60;6.60;;;37.90;99.90;;;;;;5052321;28;20401;-49
2022/08/14 10:34:01;;;;;;;8.40;6.80;;;37.00;99.90;;;;;;5050433;28;20413;-49
2022/08/14 10:36:34;;;;;;;8.50;6.20;;;36.90;99.90;;;;;;5052472;28;20408;-50
2022/08/14 10:39:02;;;;;;;8.77;7.50;;;37.30;99.90;;;;;;5051468;28;20467;-50
2022/08/14 10:41:41;;;;;;;9.52;6.10;;;37.70;99.90;;;;;;5049129;28;20392;-49
2022/08/14 10:44:20;;;;;;;8.17;7.00;;;37.50;99.90;;;;;;5052439;28;20461;-49
2022/08/14 10:46:53;;;;;;;8.30;7.00;;;36.00;99.90;;;;;;5051630;28;20393;-50
2022/08/14 10:49:25;;;;;;;8.30;6.68;;;35.00;99.90;;;;;;5051986;28;20720;-50
2022/08/14 10:52:09;;;;;;;8.80;6.50;;;33.70;99.90;;;;;;5049144;28;20404;-49
2022/08/14 10:54:44;;;;;;;10.95;7.47;;;33.60;99.90;;;;;;5050840;28;20389;-49
2022/08/14 10:57:14;;;;;;;8.73;6.88;;;33.00;99.90;;;;;;5051593;28;20782;-49
2022/08/14 10:59:55;;;;;;;9.23;7.65;;;32.50;99.90;;;;;;5051029;28;20389;-50
2022/08/14 11:02:28;;;;;;;8.73;5.75;;;32.70;99.90;;;;;;5050993;28;20386;-51
2022/08/14 11:05:16;;;;;;;9.02;4.45;;;32.80;99.90;;;;;;5048721;28;20432;-50
2022/08/14 11:07:54;;;;;;;7.93;4.13;;;32.80;99.90;;;;;;5050608;28;20394;-50
2022/08/14 11:10:44;;;;;;;8.45;4.30;;;33.00;99.90;;;;;;5049544;28;20432;-50
2022/08/14 11:13:16;;;;;;;7.57;4.10;;;32.90;99.90;;;;;;5032952;28;20397;-50
2022/08/14 11:15:42;;;;;;;8.30;4.20;;;32.80;99.90;;;;;;5051284;28;20378;-50
2022/08/14 11:18:11;;;;;;;8.93;4.17;;;32.60;99.90;;;;;;5049094;28;20460;-50
2022/08/14 11:20:38;;;;;;;8.13;3.90;;;32.70;99.90;;;;;;5050840;28;20402;-50
2022/08/14 11:23:08;;;;;;;8.48;3.85;;;32.50;99.90;;;;;;5051020;28;20420;-50
2022/08/14 11:25:36;;;;;;;7.93;4.60;;;32.30;99.90;;;;;;5051322;28;20755;-50
2022/08/14 11:28:04;;;;;;;7.70;4.10;;;32.10;99.90;;;;;;5050129;28;20433;-52
2022/08/14 11:30:30;;;;;;;8.40;4.00;;;32.00;99.90;;;;;;5050320;28;20480;-50
2022/08/14 11:32:57;;;;;;;8.70;4.40;;;32.10;99.90;;;;;;5051478;28;20767;-50
2022/08/14 11:35:25;;;;;;;7.80;3.70;;;32.30;99.90;;;;;;5052133;28;20381;-50
2022/08/14 11:37:58;;;;;;;7.00;3.80;;;32.70;99.90;;;;;;5033528;28;20473;-50
2022/08/14 11:40:26;;;;;;;9.40;4.22;;;32.70;99.90;;;;;;5051480;28;20378;-53
2022/08/14 11:42:55;;;;;;;7.60;4.00;;;32.50;99.90;;;;;;5050917;28;20409;-50
2022/08/14 11:45:27;;;;;;;9.00;4.50;;;32.40;99.90;;;;;;5051503;28;20385;-50
2022/08/14 11:47:55;;;;;;;7.00;4.05;;;32.40;99.90;;;;;;5050849;28;20378;-50
2022/08/14 11:50:27;;;;;;;8.40;4.80;;;32.90;99.90;;;;;;5051179;28;20443;-51
2022/08/14 11:52:55;;;;;;;8.10;4.10;;;33.10;99.90;;;;;;5031404;28;20445;-54
2022/08/14 11:55:25;;;;;;;8.70;4.30;;;33.10;99.90;;;;;;5031408;28;20398;-50
2022/08/14 11:58:07;;;;;;;8.67;4.30;;;33.10;99.90;;;;;;5030747;28;20418;-51
2022/08/14 12:00:33;;;;;;;7.80;4.50;;;33.40;99.90;;;;;;5031448;28;20391;-51
2022/08/14 12:03:00;;;;;;;7.33;4.00;;;33.60;99.90;;;;;;5012871;28;20484;-50
2022/08/14 12:05:29;;;;;;;8.63;3.90;;;33.50;99.90;;;;;;5030925;28;20388;-51
2022/08/14 12:07:56;;;;;;;7.50;3.93;;;33.40;99.90;;;;;;5029713;28;20391;-50
2022/08/14 12:10:22;;;;;;;7.75;3.85;;;33.40;99.90;;;;;;5031716;28;20841;-50
2022/08/14 12:12:53;;;;;;;7.53;3.88;;;33.20;99.90;;;;;;5030586;28;20493;-50
2022/08/14 12:15:32;;;;;;;7.55;4.07;;;33.20;99.90;;;;;;5051225;28;20378;-51
2022/08/14 12:17:59;;;;;;;7.70;4.00;;;33.10;1.00;;;;;;5050370;28;20373;-50
2022/08/14 12:20:37;;;;;;;7.40;3.95;;;33.30;1.00;;;;;;5050976;28;20401;-50
2022/08/14 12:23:05;;;;;;;7.65;4.00;;;33.40;99.90;;;;;;5050396;28;20405;-50
2022/08/14 12:25:33;;;;;;;8.18;4.00;;;33.60;99.90;;;;;;5050684;28;20385;-50
2022/08/14 12:28:04;;;;;;;7.28;4.38;;;33.80;99.90;;;;;;5050257;28;20420;-51
2022/08/14 12:30:39;;;;;;;8.15;4.00;;;34.10;99.90;;;;;;5050818;28;20431;-50
2022/08/14 12:33:19;;;;;;;7.15;4.07;;;34.00;99.90;;;;;;5051239;28;20385;-50
2022/08/14 12:35:45;;;;;;;7.57;3.80;;;33.70;99.90;;;;;;5049842;28;20396;-51
2022/08/14 12:38:12;;;;;;;8.40;4.10;;;33.50;99.90;;;;;;5032804;28;20507;-50
2022/08/14 12:40:51;;;;;;;8.68;3.63;;;33.00;1.00;;;;;;5050706;28;20392;-50
2022/08/14 12:43:19;;;;;;;7.43;4.00;;;32.60;1.00;;;;;;5050122;28;20444;-50
2022/08/14 12:45:50;;;;;;;7.70;4.20;;;32.80;1.00;;;;;;5049961;28;20468;-51
2022/08/14 12:48:20;;;;;;;8.50;4.35;;;33.00;1.00;;;;;;5050720;28;20468;-51
2022/08/14 12:50:47;;;;;;;8.60;3.42;;;33.40;1.00;;;;;;5032443;28;20381;-51
2022/08/14 12:53:13;;;;;;;7.43;3.80;;;33.50;1.00;;;;;;5050383;28;20378;-52
2022/08/14 12:55:41;;;;;;;7.40;3.70;;;33.50;1.00;;;;;;5050232;28;20393;-53
2022/08/14 12:58:07;;;;;;;8.30;3.80;;;33.50;1.00;;;;;;5050473;28;20777;-51
2022/08/14 13:00:37;;;;;;;7.60;4.03;;;33.50;1.00;;;;;;5050380;28;20510;-51
2022/08/14 13:03:04;;;;;;;7.90;3.85;;;33.60;1.00;;;;;;5049228;28;20404;-51
2022/08/14 13:05:33;;;;;;;7.43;3.92;;;33.90;1.00;;;;;;5050195;28;20435;-51
2022/08/14 13:08:05;;;;;;;7.82;3.30;;;34.00;99.90;;;;;;5049904;28;20785;-50
2022/08/14 13:10:34;;;;;;;7.45;3.70;;;33.90;99.90;;;;;;5050602;28;20413;-51
2022/08/14 13:13:01;;;;;;;8.13;3.50;;;33.80;99.90;;;;;;5049293;28;20655;-50